createdAt,value
2022-11-17T00:00:42.325Z,2.67
2022-11-17T00:03:16.410Z,2.47
2022-11-17T00:08:11.268Z,2.63
2022-11-17T00:10:38.402Z,2.75
2022-11-17T00:13:24.075Z,2.53
2022-11-17T00:15:51.447Z,2.78
2022-11-17T00:18:36.940Z,2.28
2022-11-17T00:21:21.534Z,2.70
2022-11-17T00:23:50.172Z,2.88
2022-11-17T00:26:32.147Z,2.22
2022-11-17T00:29:01.586Z,2.00
2022-11-17T00:31:48.724Z,2.30
2022-11-17T00:34:21.268Z,3.42
2022-11-17T00:36:51.127Z,2.40
2022-11-17T00:39:20.536Z,3.00
2022-11-17T00:41:48.130Z,2.53
2022-11-17T00:44:15.816Z,2.53
2022-11-17T00:46:43.330Z,2.60
2022-11-17T00:49:11.606Z,2.33
2022-11-17T00:51:39.285Z,2.83
2022-11-17T00:54:07.707Z,2.40
2022-11-17T00:56:34.888Z,3.00
2022-11-17T00:59:02.271Z,3.08
2022-11-17T01:01:30.565Z,2.80
2022-11-17T01:04:03.761Z,2.50
2022-11-17T01:06:34.549Z,2.92
2022-11-17T01:09:03.176Z,2.70
2022-11-17T01:11:30.491Z,3.65
2022-11-17T01:13:59.386Z,11.68
2022-11-17T01:16:27.478Z,4.05
2022-11-17T01:18:54.916Z,4.13
2022-11-17T01:21:24.628Z,5.47
2022-11-17T01:23:54.557Z,3.47
2022-11-17T01:26:25.541Z,10.07
2022-11-17T01:28:53.202Z,4.63
2022-11-17T01:31:26.751Z,3.30
2022-11-17T01:33:54.420Z,3.85
2022-11-17T01:36:24.377Z,2.60
2022-11-17T01:38:51.904Z,7.65
2022-11-17T01:41:24.284Z,2.45
2022-11-17T01:43:54.189Z,2.10
2022-11-17T01:46:37.942Z,2.47
2022-11-17T01:49:13.187Z,2.28
2022-11-17T01:51:46.376Z,5.75
2022-11-17T01:54:18.028Z,5.10
2022-11-17T01:56:49.130Z,4.43
2022-11-17T01:59:28.148Z,3.90
2022-11-17T02:01:56.137Z,6.10
2022-11-17T02:04:36.967Z,2.05
2022-11-17T02:07:11.718Z,2.33
2022-11-17T02:09:40.981Z,1.75
2022-11-17T02:12:12.637Z,2.20
2022-11-17T02:14:40.218Z,2.08
2022-11-17T02:17:13.955Z,2.10
2022-11-17T02:19:44.690Z,2.10
2022-11-17T02:22:14.578Z,2.40
2022-11-17T02:25:25.720Z,1.75
2022-11-17T02:28:26.195Z,2.00
2022-11-17T02:31:33.271Z,1.42
2022-11-17T02:34:30.759Z,1.30
2022-11-17T02:37:25.621Z,1.60
2022-11-17T02:40:04.535Z,1.38
2022-11-17T02:43:01.612Z,1.50
2022-11-17T02:45:39.488Z,1.70
2022-11-17T02:48:14.664Z,1.40
2022-11-17T02:50:45.009Z,1.70
2022-11-17T02:53:13.426Z,1.85
2022-11-17T02:55:40.626Z,1.60
2022-11-17T02:58:13.809Z,1.80
2022-11-17T03:00:54.200Z,1.30
2022-11-17T03:03:27.384Z,1.50
2022-11-17T03:06:26.459Z,1.33
2022-11-17T03:09:25.615Z,1.30
2022-11-17T03:12:15.669Z,1.52
2022-11-17T03:14:51.999Z,1.77
2022-11-17T03:17:31.944Z,1.60
2022-11-17T03:20:08.613Z,1.20
2022-11-17T03:22:47.998Z,1.08
2022-11-17T03:25:19.772Z,1.20
2022-11-17T03:27:50.933Z,1.20
2022-11-17T03:30:19.433Z,1.20
2022-11-17T03:32:55.158Z,1.88
2022-11-17T03:35:29.424Z,1.38
2022-11-17T03:38:01.984Z,1.40
2022-11-17T03:40:32.603Z,1.63
2022-11-17T03:43:02.431Z,1.90
2022-11-17T03:45:33.563Z,1.85
2022-11-17T03:48:17.938Z,2.08
2022-11-17T03:50:57.519Z,2.22
2022-11-17T03:53:24.783Z,2.22
2022-11-17T03:56:31.714Z,2.42
2022-11-17T03:59:03.947Z,1.88
2022-11-17T04:01:33.649Z,2.00
2022-11-17T04:04:01.147Z,1.98
2022-11-17T04:06:28.313Z,1.92
2022-11-17T04:08:55.394Z,1.90
2022-11-17T04:11:41.145Z,1.45
2022-11-17T04:14:27.740Z,1.70
2022-11-17T04:16:54.967Z,1.50
2022-11-17T04:19:22.162Z,1.73
2022-11-17T04:21:49.314Z,1.85
2022-11-17T04:24:16.517Z,1.63
2022-11-17T04:27:02.246Z,1.63
2022-11-17T04:29:29.488Z,1.70
2022-11-17T04:31:56.604Z,1.58
2022-11-17T04:34:23.757Z,1.50
2022-11-17T04:36:51.147Z,2.00
2022-11-17T04:39:18.407Z,1.77
2022-11-17T04:41:54.666Z,1.77
2022-11-17T04:44:25.413Z,2.05
2022-11-17T04:46:53.397Z,1.88
2022-11-17T04:49:22.372Z,1.98
2022-11-17T04:51:50.651Z,2.83
2022-11-17T04:54:20.529Z,2.15
2022-11-17T04:56:51.228Z,2.10
2022-11-17T04:59:18.413Z,1.83
2022-11-17T05:01:46.075Z,2.50
2022-11-17T05:04:35.704Z,2.63
2022-11-17T05:07:03.028Z,2.40
2022-11-17T05:09:30.141Z,2.10
2022-11-17T05:12:15.821Z,1.83
2022-11-17T05:14:43.001Z,1.77
2022-11-17T05:17:11.777Z,1.83
2022-11-17T05:19:44.750Z,2.20
2022-11-17T05:22:32.965Z,1.83
2022-11-17T05:25:00.463Z,1.90
2022-11-17T05:27:27.673Z,2.60
2022-11-17T05:29:54.887Z,1.90
2022-11-17T05:32:22.222Z,2.25
2022-11-17T05:34:49.400Z,2.60
2022-11-17T05:37:16.601Z,2.78
2022-11-17T05:39:43.787Z,4.30
2022-11-17T05:42:11.019Z,2.50
2022-11-17T05:44:38.359Z,2.83
2022-11-17T05:47:05.517Z,2.58
2022-11-17T05:49:32.659Z,2.60
2022-11-17T05:51:59.762Z,3.92
2022-11-17T05:54:27.164Z,6.35
2022-11-17T05:57:11.858Z,3.80
2022-11-17T05:59:51.178Z,5.63
2022-11-17T06:02:23.737Z,5.38
2022-11-17T06:04:51.683Z,3.25
2022-11-17T06:07:19.670Z,3.13
2022-11-17T06:09:47.422Z,3.92
2022-11-17T06:12:15.622Z,3.25
2022-11-17T06:14:43.224Z,4.57
2022-11-17T06:17:23.295Z,3.10
2022-11-17T06:20:05.582Z,6.45
2022-11-17T06:22:34.041Z,3.88
2022-11-17T06:25:03.419Z,3.53
2022-11-17T06:27:32.237Z,2.67
2022-11-17T06:30:01.963Z,3.30
2022-11-17T06:32:29.183Z,2.67
2022-11-17T06:34:57.278Z,3.10
2022-11-17T06:37:25.342Z,2.90
2022-11-17T06:39:52.820Z,2.97
2022-11-17T06:42:19.944Z,3.33
2022-11-17T06:44:47.183Z,3.58
2022-11-17T06:47:14.305Z,8.02
2022-11-17T06:49:41.452Z,4.07
2022-11-17T06:52:08.685Z,3.88
2022-11-17T06:54:35.798Z,3.15
2022-11-17T06:57:02.925Z,3.78
2022-11-17T06:59:30.143Z,3.42
2022-11-17T07:01:57.340Z,4.43
2022-11-17T07:04:24.440Z,4.85
2022-11-17T07:06:51.647Z,5.38
2022-11-17T07:09:18.840Z,5.30
2022-11-17T07:11:45.939Z,5.30
2022-11-17T07:14:13.343Z,7.10
2022-11-17T07:16:43.066Z,6.55
2022-11-17T07:19:11.355Z,7.80
2022-11-17T07:21:38.539Z,5.28
2022-11-17T07:24:05.925Z,5.72
2022-11-17T07:26:33.224Z,4.85
2022-11-17T07:29:00.439Z,5.00
2022-11-17T07:31:27.860Z,16.48
2022-11-17T07:33:55.104Z,10.40
2022-11-17T07:36:22.432Z,5.68
2022-11-17T07:38:49.708Z,3.38
2022-11-17T07:41:16.800Z,6.20
2022-11-17T07:43:44.023Z,4.88
2022-11-17T07:46:13.243Z,3.28
2022-11-17T07:48:41.264Z,3.10
2022-11-17T07:51:08.662Z,3.08
2022-11-17T07:53:36.744Z,2.72
2022-11-17T07:56:06.279Z,3.17
2022-11-17T07:58:34.024Z,3.72
2022-11-17T08:01:06.144Z,3.20
2022-11-17T08:03:33.403Z,3.90
2022-11-17T08:06:08.141Z,2.80
2022-11-17T08:08:36.388Z,4.43
2022-11-17T08:11:08.995Z,8.95
2022-11-17T08:13:36.340Z,10.02
2022-11-17T08:16:05.098Z,12.60
2022-11-17T08:18:33.659Z,10.13
2022-11-17T08:21:03.574Z,2.88
2022-11-17T08:23:30.812Z,2.97
2022-11-17T08:25:58.026Z,4.43
2022-11-17T08:28:25.211Z,3.15
2022-11-17T08:30:52.478Z,4.57
2022-11-17T08:33:19.663Z,5.95
2022-11-17T08:35:46.841Z,5.85
2022-11-17T08:38:18.482Z,2.70
2022-11-17T08:40:46.685Z,2.85
2022-11-17T08:43:13.842Z,5.38
2022-11-17T08:45:43.302Z,3.80
2022-11-17T08:48:10.477Z,3.53
2022-11-17T08:50:37.644Z,3.90
2022-11-17T08:53:04.885Z,3.78
2022-11-17T08:55:35.711Z,7.85
2022-11-17T08:58:06.872Z,3.70
2022-11-17T09:00:34.219Z,2.90
2022-11-17T09:03:01.464Z,3.13
2022-11-17T09:05:28.998Z,5.43
2022-11-17T09:08:05.967Z,3.20
2022-11-17T09:10:44.023Z,2.78
2022-11-17T09:13:14.771Z,3.38
2022-11-17T09:15:44.578Z,3.35
2022-11-17T09:18:11.696Z,2.20
2022-11-17T09:20:44.266Z,3.13
2022-11-17T09:23:12.765Z,2.45
2022-11-17T09:25:40.566Z,2.85
2022-11-17T09:28:07.698Z,3.30
2022-11-17T09:30:34.928Z,3.40
2022-11-17T09:33:02.078Z,3.10
2022-11-17T09:35:29.218Z,3.42
2022-11-17T09:38:01.199Z,3.50
2022-11-17T09:40:33.198Z,3.25
2022-11-17T09:43:20.737Z,3.70
2022-11-17T09:51:14.662Z,3.00
2022-11-17T09:53:56.938Z,2.35
2022-11-17T09:56:27.442Z,2.55
2022-11-17T09:58:59.191Z,3.25
2022-11-17T10:01:29.126Z,3.15
2022-11-17T10:03:59.381Z,3.47
2022-11-17T10:06:29.426Z,3.30
2022-11-17T10:09:15.264Z,2.72
2022-11-17T10:11:44.159Z,2.92
2022-11-17T10:14:14.501Z,2.90
2022-11-17T10:16:45.838Z,3.35
2022-11-17T10:19:23.382Z,6.20
2022-11-17T10:22:02.708Z,4.90
2022-11-17T10:24:38.519Z,4.10
2022-11-17T10:27:18.344Z,10.82
2022-11-17T10:30:19.665Z,7.72
2022-11-17T10:32:58.748Z,10.57
2022-11-17T10:35:31.237Z,3.10
2022-11-17T10:38:02.768Z,6.22
2022-11-17T10:40:39.266Z,8.25
2022-11-17T10:43:12.496Z,12.57
2022-11-17T10:45:50.624Z,9.75
2022-11-17T10:48:24.020Z,13.38
2022-11-17T10:50:59.292Z,6.93
2022-11-17T10:53:28.456Z,6.13
2022-11-17T10:56:25.104Z,5.45
2022-11-17T10:59:17.113Z,5.60
2022-11-17T11:01:46.943Z,5.72
2022-11-17T11:04:39.722Z,5.57
2022-11-17T11:07:14.060Z,4.88
2022-11-17T11:10:19.653Z,6.45
2022-11-17T11:12:54.129Z,2.55
2022-11-17T11:15:23.694Z,2.75
2022-11-17T11:17:51.769Z,2.88
2022-11-17T11:20:24.657Z,3.20
2022-11-17T11:23:14.636Z,2.58
2022-11-17T11:25:51.839Z,2.90
2022-11-17T11:28:47.158Z,2.63
2022-11-17T11:31:43.142Z,2.58
2022-11-17T11:34:22.248Z,3.78
2022-11-17T11:36:56.959Z,3.20
2022-11-17T11:39:46.885Z,2.42
2022-11-17T11:42:38.637Z,2.30
2022-11-17T11:45:18.373Z,3.08
2022-11-17T11:47:57.663Z,3.33
2022-11-17T11:50:30.539Z,3.35
2022-11-17T11:53:11.602Z,5.72
2022-11-17T11:55:41.744Z,3.22
2022-11-17T11:58:24.318Z,2.72
2022-11-17T12:01:02.198Z,2.85
2022-11-17T12:03:43.755Z,2.50
2022-11-17T12:06:42.271Z,3.00
2022-11-17T12:09:46.800Z,14.10
2022-11-17T12:12:17.618Z,4.93
2022-11-17T12:15:08.626Z,2.90
2022-11-17T12:17:36.519Z,3.30
2022-11-17T12:20:25.322Z,4.57
2022-11-17T12:23:02.836Z,6.05
2022-11-17T12:25:33.540Z,2.55
2022-11-17T12:28:27.218Z,2.40
2022-11-17T12:31:11.859Z,5.07
2022-11-17T12:33:54.259Z,4.95
2022-11-17T12:36:29.679Z,3.00
2022-11-17T12:39:02.221Z,2.83
2022-11-17T12:41:47.937Z,2.65
2022-11-17T12:44:44.218Z,3.55
2022-11-17T12:47:15.527Z,2.45
2022-11-17T12:50:10.163Z,4.80
2022-11-17T12:55:57.893Z,2.95
2022-11-17T12:58:59.886Z,3.55
2022-11-17T13:01:48.555Z,2.60
2022-11-17T13:04:49.338Z,3.10
2022-11-17T13:07:27.400Z,2.40
2022-11-17T13:10:00.249Z,3.10
2022-11-17T13:12:30.427Z,3.97
2022-11-17T13:15:02.869Z,3.55
2022-11-17T13:17:33.739Z,5.00
2022-11-17T13:20:25.478Z,3.67
2022-11-17T13:23:12.967Z,4.28
2022-11-17T13:25:40.478Z,3.95
2022-11-17T13:28:31.420Z,4.40
2022-11-17T13:31:00.928Z,3.90
2022-11-17T13:33:29.888Z,2.60
2022-11-17T13:36:15.418Z,6.80
2022-11-17T13:38:53.206Z,3.80
2022-11-17T13:41:22.225Z,4.07
2022-11-17T13:43:51.292Z,2.97
2022-11-17T13:46:19.397Z,4.65
2022-11-17T13:48:48.798Z,4.65
2022-11-17T13:51:45.405Z,4.55
2022-11-17T13:54:13.173Z,2.92
2022-11-17T13:56:53.019Z,2.83
2022-11-17T13:59:25.157Z,2.40
2022-11-17T14:02:30.691Z,3.00
2022-11-17T14:05:27.560Z,2.90
2022-11-17T14:07:57.495Z,2.90
2022-11-17T14:10:31.804Z,2.78
2022-11-17T14:13:01.667Z,3.10
2022-11-17T14:15:37.786Z,3.25
2022-11-17T14:18:38.358Z,2.55
2022-11-17T14:21:11.877Z,2.90
2022-11-17T14:23:39.577Z,2.75
2022-11-17T14:26:13.862Z,2.92
2022-11-17T14:28:40.943Z,2.55
2022-11-17T14:31:12.775Z,2.58
2022-11-17T14:33:40.599Z,2.70
2022-11-17T14:36:14.870Z,2.85
2022-11-17T14:38:43.122Z,2.80
2022-11-17T14:41:10.243Z,2.85
2022-11-17T14:43:37.487Z,2.65
2022-11-17T14:46:04.711Z,3.08
2022-11-17T14:48:31.885Z,3.47
2022-11-17T14:50:59.955Z,3.38
2022-11-17T14:53:27.469Z,3.03
2022-11-17T14:55:54.640Z,4.15
2022-11-17T14:58:21.842Z,3.17
2022-11-17T15:00:49.074Z,2.58
2022-11-17T15:03:16.389Z,3.55
2022-11-17T15:05:45.839Z,3.13
2022-11-17T15:08:14.423Z,3.63
2022-11-17T15:10:45.618Z,3.90
2022-11-17T15:13:13.089Z,5.10
2022-11-17T15:15:40.324Z,4.82
2022-11-17T15:18:07.519Z,7.03
2022-11-17T15:20:34.762Z,4.88
2022-11-17T15:23:03.514Z,3.00
2022-11-17T15:25:31.083Z,5.80
2022-11-17T15:27:58.310Z,21.63
2022-11-17T15:30:25.498Z,10.13
2022-11-17T15:32:52.638Z,11.38
2022-11-17T15:35:19.840Z,4.20
2022-11-17T15:37:47.018Z,4.47
2022-11-17T15:40:19.271Z,4.50
2022-11-17T15:42:46.784Z,6.03
2022-11-17T15:45:14.037Z,6.30
2022-11-17T15:47:41.201Z,3.90
2022-11-17T15:50:08.937Z,5.25
2022-11-17T15:53:02.319Z,4.82
2022-11-17T15:55:23.203Z,3.95
2022-11-17T15:57:54.064Z,4.65
2022-11-17T16:00:21.582Z,6.30
2022-11-17T16:02:48.963Z,5.28
2022-11-17T16:05:16.442Z,4.15
2022-11-17T16:10:11.546Z,3.38
2022-11-17T16:12:38.882Z,4.32
2022-11-17T16:15:06.917Z,3.47
2022-11-17T16:17:34.142Z,3.92
2022-11-17T16:20:01.520Z,4.80
2022-11-17T16:22:28.738Z,5.57
2022-11-17T16:24:55.978Z,4.70
2022-11-17T16:27:23.302Z,4.80
2022-11-17T16:29:50.602Z,4.85
2022-11-17T16:32:17.656Z,5.70
2022-11-17T16:34:49.162Z,7.18
2022-11-17T16:37:16.338Z,5.15
2022-11-17T16:39:43.690Z,7.43
2022-11-17T16:42:10.985Z,7.18
2022-11-17T16:44:38.402Z,6.85
2022-11-17T16:47:05.678Z,6.53
2022-11-17T16:49:35.183Z,4.38
2022-11-17T16:52:02.573Z,4.93
2022-11-17T16:54:29.817Z,3.60
2022-11-17T16:56:57.019Z,4.70
2022-11-17T16:59:24.303Z,4.45
2022-11-17T17:01:51.462Z,4.63
2022-11-17T17:04:18.591Z,5.15
2022-11-17T17:06:46.405Z,4.63
2022-11-17T17:09:15.350Z,4.57
2022-11-17T17:11:42.943Z,4.65
2022-11-17T17:14:13.707Z,7.18
2022-11-17T17:16:42.319Z,9.25
2022-11-17T17:19:10.859Z,7.72
2022-11-17T17:21:39.562Z,5.63
2022-11-17T17:24:07.821Z,5.68
2022-11-17T17:26:36.746Z,6.10
2022-11-17T17:29:06.111Z,5.40
2022-11-17T17:31:36.362Z,4.63
2022-11-17T17:34:04.482Z,4.13
2022-11-17T17:36:32.403Z,4.05
2022-11-17T17:39:03.874Z,4.32
2022-11-17T17:41:33.601Z,4.47
2022-11-17T17:44:06.037Z,3.33
2022-11-17T17:46:38.742Z,3.08
2022-11-17T17:49:06.764Z,2.33
2022-11-17T17:51:40.270Z,2.50
2022-11-17T17:54:07.819Z,2.80
2022-11-17T17:56:35.279Z,2.50
2022-11-17T17:59:02.483Z,2.60
2022-11-17T18:01:33.337Z,2.83
2022-11-17T18:04:05.174Z,2.13
2022-11-17T18:06:43.963Z,1.85
2022-11-17T18:09:14.548Z,2.50
2022-11-17T18:11:46.117Z,2.30
2022-11-17T18:14:13.938Z,1.67
2022-11-17T18:16:41.397Z,2.10
2022-11-17T18:19:09.938Z,2.53
2022-11-17T18:21:37.283Z,2.85
2022-11-17T18:24:05.031Z,3.00
2022-11-17T18:26:35.505Z,3.42
2022-11-17T18:29:05.614Z,2.25
2022-11-17T18:31:35.517Z,2.30
2022-11-17T18:34:08.925Z,2.70
2022-11-17T18:36:36.502Z,2.90
2022-11-17T18:39:04.199Z,3.28
2022-11-17T18:41:34.167Z,2.90
2022-11-17T18:44:01.829Z,2.78
2022-11-17T18:46:31.365Z,3.25
2022-11-17T18:48:59.065Z,3.20
2022-11-17T18:51:32.030Z,4.40
2022-11-17T18:54:02.397Z,3.25
2022-11-17T18:56:35.280Z,2.92
2022-11-17T18:59:03.597Z,2.92
2022-11-17T19:01:31.755Z,3.10
2022-11-17T19:04:03.199Z,2.70
2022-11-17T19:06:30.828Z,2.20
2022-11-17T19:09:01.263Z,2.50
2022-11-17T19:11:33.917Z,2.92
2022-11-17T19:14:05.656Z,2.20
2022-11-17T19:16:42.630Z,2.13
2022-11-17T19:19:11.201Z,1.85
2022-11-17T19:21:38.403Z,1.88
2022-11-17T19:24:05.896Z,1.83
2022-11-17T19:26:34.693Z,2.15
2022-11-17T19:29:14.256Z,2.00
2022-11-17T19:31:43.614Z,2.35
2022-11-17T19:34:10.998Z,1.98
2022-11-17T19:36:38.180Z,2.53
2022-11-17T19:39:05.982Z,2.33
2022-11-17T19:41:36.242Z,2.70
2022-11-17T19:44:05.639Z,2.70
2022-11-17T19:46:33.619Z,2.42
2022-11-17T19:49:00.922Z,2.10
2022-11-17T19:51:32.983Z,2.63
2022-11-17T19:54:07.733Z,2.10
2022-11-17T19:56:35.580Z,2.33
2022-11-17T19:59:03.685Z,3.05
2022-11-17T20:01:32.606Z,2.13
2022-11-17T20:04:01.389Z,2.53
2022-11-17T20:06:32.183Z,2.97
2022-11-17T20:08:59.398Z,2.33
2022-11-17T20:11:28.511Z,2.90
2022-11-17T20:13:56.467Z,3.05
2022-11-17T20:16:25.362Z,2.78
2022-11-17T20:18:55.305Z,3.47
2022-11-17T20:21:23.417Z,3.25
2022-11-17T20:23:51.022Z,2.17
2022-11-17T20:26:20.515Z,2.00
2022-11-17T20:28:48.218Z,2.40
2022-11-17T20:31:17.064Z,2.03
2022-11-17T20:33:44.386Z,2.70
2022-11-17T20:36:20.599Z,2.65
2022-11-17T20:38:57.523Z,2.65
2022-11-17T20:41:25.697Z,2.35
2022-11-17T20:43:54.665Z,3.03
2022-11-17T20:46:23.039Z,2.38
2022-11-17T20:48:50.681Z,2.67
2022-11-17T20:51:20.390Z,2.10
2022-11-17T20:53:47.884Z,2.30
2022-11-17T20:56:19.121Z,2.20
2022-11-17T20:58:46.619Z,2.30
2022-11-17T21:01:16.749Z,2.20
2022-11-17T21:03:45.524Z,2.35
2022-11-17T21:06:14.131Z,2.30
2022-11-17T21:08:43.077Z,2.63
2022-11-17T21:11:32.547Z,2.17
2022-11-17T21:14:00.266Z,2.45
2022-11-17T21:16:27.444Z,2.83
2022-11-17T21:18:54.604Z,2.72
2022-11-17T21:21:22.042Z,2.13
2022-11-17T21:23:53.941Z,2.10
2022-11-17T21:26:23.060Z,2.70
2022-11-17T21:28:50.597Z,2.50
2022-11-17T21:31:20.088Z,2.50
2022-11-17T21:33:47.578Z,2.35
2022-11-17T21:36:16.880Z,2.50
2022-11-17T21:38:45.547Z,2.38
2022-11-17T21:41:18.938Z,2.38
2022-11-17T21:43:47.847Z,2.30
2022-11-17T21:46:18.015Z,2.40
2022-11-17T21:48:45.782Z,2.53
2022-11-17T21:51:21.479Z,2.53
2022-11-17T21:53:55.964Z,2.63
2022-11-17T21:56:26.867Z,1.95
2022-11-17T21:59:01.618Z,2.78
2022-11-17T22:01:29.666Z,1.63
2022-11-17T22:03:56.878Z,1.50
2022-11-17T22:06:25.801Z,1.90
2022-11-17T22:08:54.366Z,2.30
2022-11-17T22:11:36.319Z,1.70
2022-11-17T22:14:14.410Z,1.80
2022-11-17T22:16:43.884Z,1.50
2022-11-17T22:19:12.299Z,1.73
2022-11-17T22:21:40.031Z,1.90
2022-11-17T22:24:10.218Z,1.85
2022-11-17T22:26:38.761Z,1.60
2022-11-17T22:29:08.033Z,1.85
2022-11-17T22:31:35.264Z,2.08
2022-11-17T22:34:02.563Z,1.80
2022-11-17T22:36:29.772Z,1.40
2022-11-17T22:38:57.160Z,1.90
2022-11-17T22:41:24.648Z,1.50
2022-11-17T22:43:56.643Z,1.45
2022-11-17T22:46:26.932Z,1.33
2022-11-17T22:48:54.440Z,1.92
2022-11-17T22:51:41.003Z,1.98
2022-11-17T22:54:08.850Z,2.13
2022-11-17T22:56:36.608Z,1.60
2022-11-17T22:59:03.998Z,2.05
2022-11-17T23:01:31.147Z,1.58
2022-11-17T23:03:58.531Z,1.90
2022-11-17T23:06:27.418Z,1.75
2022-11-17T23:08:55.903Z,1.55
2022-11-17T23:11:36.514Z,1.63
2022-11-17T23:14:05.738Z,1.50
2022-11-17T23:16:33.357Z,1.50
2022-11-17T23:19:00.508Z,2.00
2022-11-17T23:21:28.335Z,1.70
2022-11-17T23:23:56.038Z,1.98
2022-11-17T23:26:23.852Z,2.47
2022-11-17T23:28:51.162Z,1.20
2022-11-17T23:31:18.508Z,1.77
2022-11-17T23:33:47.264Z,1.30
2022-11-17T23:36:17.066Z,1.70
2022-11-17T23:38:44.633Z,1.30
2022-11-17T23:41:14.812Z,1.50
2022-11-17T23:43:42.571Z,1.40
2022-11-17T23:46:18.343Z,1.50
2022-11-17T23:48:45.698Z,1.70
2022-11-17T23:51:16.112Z,1.42
2022-11-17T23:53:43.524Z,1.55
2022-11-17T23:56:11.208Z,1.23
2022-11-17T23:58:39.085Z,1.30
